Terminal Aerodrome Forecast
Issued by NWS

Current Version | Previous Version | Text Only | Print | Product List | Glossary On
Versions: 1 2 3 4 5 6 7 8 9 10 11 12 13
000
FTUS43 KICT 041126
TAFSLN
TAF
KSLN 041126Z 0412/0512 17012KT P6SM SCT130
     FM041500 18017G25KT P6SM SCT130
     FM050100 16013KT P6SM SCT150=

USA.gov is the U.S. government's official web portal to all federal, state and local government web resources and services.